sensor_id;sensor_type;location;lat;lon;timestamp;P1;durP1;ratioP1;P2;durP2;ratioP2
52272;SDS011;38227;50.942;4.016;2022-11-20T00:01:58;86.55;;;41.05;;
52272;SDS011;38227;50.942;4.016;2022-11-20T00:04:38;93.68;;;42.13;;
52272;SDS011;38227;50.942;4.016;2022-11-20T00:07:10;99.32;;;42.47;;
52272;SDS011;38227;50.942;4.016;2022-11-20T00:09:49;90.97;;;41.95;;
52272;SDS011;38227;50.942;4.016;2022-11-20T00:12:20;88.72;;;41.03;;
52272;SDS011;38227;50.942;4.016;2022-11-20T00:15:00;83.43;;;40.67;;
52272;SDS011;38227;50.942;4.016;2022-11-20T00:17:33;65.85;;;31.98;;
52272;SDS011;38227;50.942;4.016;2022-11-20T00:20:11;87.95;;;41.22;;
52272;SDS011;38227;50.942;4.016;2022-11-20T00:22:43;83.93;;;41.65;;
52272;SDS011;38227;50.942;4.016;2022-11-20T00:25:15;78.07;;;40.90;;
52272;SDS011;38227;50.942;4.016;2022-11-20T00:27:46;88.37;;;42.33;;
52272;SDS011;38227;50.942;4.016;2022-11-20T00:30:17;84.07;;;41.75;;
52272;SDS011;38227;50.942;4.016;2022-11-20T00:32:56;81.72;;;41.97;;
52272;SDS011;38227;50.942;4.016;2022-11-20T00:35:28;82.88;;;40.85;;
52272;SDS011;38227;50.942;4.016;2022-11-20T00:38:01;82.60;;;40.22;;
52272;SDS011;38227;50.942;4.016;2022-11-20T00:40:41;81.60;;;42.00;;
52272;SDS011;38227;50.942;4.016;2022-11-20T00:43:18;80.05;;;41.15;;
52272;SDS011;38227;50.942;4.016;2022-11-20T00:45:59;88.65;;;41.37;;
52272;SDS011;38227;50.942;4.016;2022-11-20T00:48:38;81.95;;;41.22;;
52272;SDS011;38227;50.942;4.016;2022-11-20T00:51:11;94.80;;;42.80;;
52272;SDS011;38227;50.942;4.016;2022-11-20T00:53:44;84.62;;;41.40;;
52272;SDS011;38227;50.942;4.016;2022-11-20T00:56:22;84.28;;;41.97;;
52272;SDS011;38227;50.942;4.016;2022-11-20T00:59:02;87.10;;;42.67;;
52272;SDS011;38227;50.942;4.016;2022-11-20T01:01:32;82.07;;;41.63;;
52272;SDS011;38227;50.942;4.016;2022-11-20T01:04:08;84.68;;;41.97;;
52272;SDS011;38227;50.942;4.016;2022-11-20T01:06:48;82.47;;;42.25;;
52272;SDS011;38227;50.942;4.016;2022-11-20T01:09:20;88.90;;;43.28;;
52272;SDS011;38227;50.942;4.016;2022-11-20T01:11:59;87.18;;;41.42;;
52272;SDS011;38227;50.942;4.016;2022-11-20T01:14:32;84.82;;;43.92;;
52272;SDS011;38227;50.942;4.016;2022-11-20T01:17:05;83.82;;;42.53;;
52272;SDS011;38227;50.942;4.016;2022-11-20T01:19:38;88.28;;;43.60;;
52272;SDS011;38227;50.942;4.016;2022-11-20T01:22:09;83.90;;;42.10;;
52272;SDS011;38227;50.942;4.016;2022-11-20T01:24:37;86.65;;;43.05;;
52272;SDS011;38227;50.942;4.016;2022-11-20T01:27:06;85.97;;;42.40;;
52272;SDS011;38227;50.942;4.016;2022-11-20T01:29:38;86.37;;;43.53;;
52272;SDS011;38227;50.942;4.016;2022-11-20T01:32:16;87.95;;;42.28;;
52272;SDS011;38227;50.942;4.016;2022-11-20T01:34:45;86.10;;;42.42;;
52272;SDS011;38227;50.942;4.016;2022-11-20T01:37:14;85.00;;;42.08;;
52272;SDS011;38227;50.942;4.016;2022-11-20T01:39:46;91.57;;;44.38;;
52272;SDS011;38227;50.942;4.016;2022-11-20T01:42:23;82.57;;;42.97;;
52272;SDS011;38227;50.942;4.016;2022-11-20T01:48:13;89.65;;;44.60;;
52272;SDS011;38227;50.942;4.016;2022-11-20T01:50:45;93.03;;;43.87;;
52272;SDS011;38227;50.942;4.016;2022-11-20T01:53:15;95.95;;;44.28;;
52272;SDS011;38227;50.942;4.016;2022-11-20T01:55:51;87.12;;;43.25;;
52272;SDS011;38227;50.942;4.016;2022-11-20T01:58:24;91.28;;;44.97;;
52272;SDS011;38227;50.942;4.016;2022-11-20T02:00:57;91.20;;;44.35;;
52272;SDS011;38227;50.942;4.016;2022-11-20T02:03:29;95.53;;;44.65;;
52272;SDS011;38227;50.942;4.016;2022-11-20T02:06:19;90.68;;;44.15;;
52272;SDS011;38227;50.942;4.016;2022-11-20T02:09:09;102.25;;;45.65;;
52272;SDS011;38227;50.942;4.016;2022-11-20T02:11:37;99.95;;;45.45;;
52272;SDS011;38227;50.942;4.016;2022-11-20T02:14:07;95.78;;;46.50;;
52272;SDS011;38227;50.942;4.016;2022-11-20T02:16:37;102.93;;;46.42;;
52272;SDS011;38227;50.942;4.016;2022-11-20T02:19:09;107.05;;;47.13;;
52272;SDS011;38227;50.942;4.016;2022-11-20T02:21:54;103.10;;;47.47;;
52272;SDS011;38227;50.942;4.016;2022-11-20T02:24:40;104.57;;;46.25;;
52272;SDS011;38227;50.942;4.016;2022-11-20T02:27:20;106.22;;;46.00;;
52272;SDS011;38227;50.942;4.016;2022-11-20T02:29:57;105.72;;;46.05;;
52272;SDS011;38227;50.942;4.016;2022-11-20T02:32:35;106.22;;;46.37;;
52272;SDS011;38227;50.942;4.016;2022-11-20T02:38:18;106.45;;;45.40;;
52272;SDS011;38227;50.942;4.016;2022-11-20T02:40:56;103.80;;;47.85;;
52272;SDS011;38227;50.942;4.016;2022-11-20T02:43:29;110.88;;;46.37;;
52272;SDS011;38227;50.942;4.016;2022-11-20T02:46:07;103.65;;;45.40;;
52272;SDS011;38227;50.942;4.016;2022-11-20T02:48:40;76.10;;;34.90;;
52272;SDS011;38227;50.942;4.016;2022-11-20T02:51:19;93.97;;;44.63;;
52272;SDS011;38227;50.942;4.016;2022-11-20T02:53:49;94.37;;;45.00;;
52272;SDS011;38227;50.942;4.016;2022-11-20T02:56:17;101.28;;;45.97;;
52272;SDS011;38227;50.942;4.016;2022-11-20T02:58:46;106.57;;;47.17;;
52272;SDS011;38227;50.942;4.016;2022-11-20T03:01:14;108.03;;;46.70;;
52272;SDS011;38227;50.942;4.016;2022-11-20T03:03:43;107.97;;;45.95;;
52272;SDS011;38227;50.942;4.016;2022-11-20T03:06:19;100.25;;;45.12;;
52272;SDS011;38227;50.942;4.016;2022-11-20T03:08:48;100.03;;;44.85;;
52272;SDS011;38227;50.942;4.016;2022-11-20T03:11:17;98.25;;;44.65;;
52272;SDS011;38227;50.942;4.016;2022-11-20T03:13:46;98.35;;;43.85;;
52272;SDS011;38227;50.942;4.016;2022-11-20T03:16:16;102.85;;;44.85;;
52272;SDS011;38227;50.942;4.016;2022-11-20T03:18:45;103.68;;;46.40;;
52272;SDS011;38227;50.942;4.016;2022-11-20T03:21:16;105.43;;;45.80;;
52272;SDS011;38227;50.942;4.016;2022-11-20T03:23:48;96.95;;;44.55;;
52272;SDS011;38227;50.942;4.016;2022-11-20T03:26:19;103.72;;;46.35;;
52272;SDS011;38227;50.942;4.016;2022-11-20T03:28:53;110.75;;;47.03;;
52272;SDS011;38227;50.942;4.016;2022-11-20T03:31:26;105.12;;;46.60;;
52272;SDS011;38227;50.942;4.016;2022-11-20T03:33:58;105.45;;;46.75;;
52272;SDS011;38227;50.942;4.016;2022-11-20T03:36:27;102.70;;;44.85;;
52272;SDS011;38227;50.942;4.016;2022-11-20T03:38:55;105.45;;;45.70;;
52272;SDS011;38227;50.942;4.016;2022-11-20T03:41:28;106.30;;;46.83;;
52272;SDS011;38227;50.942;4.016;2022-11-20T03:44:01;101.50;;;47.80;;
52272;SDS011;38227;50.942;4.016;2022-11-20T03:46:30;109.82;;;48.10;;
52272;SDS011;38227;50.942;4.016;2022-11-20T03:49:00;109.22;;;48.78;;
52272;SDS011;38227;50.942;4.016;2022-11-20T03:51:29;116.10;;;48.97;;
52272;SDS011;38227;50.942;4.016;2022-11-20T03:54:05;113.65;;;48.80;;
52272;SDS011;38227;50.942;4.016;2022-11-20T03:56:35;113.32;;;50.03;;
52272;SDS011;38227;50.942;4.016;2022-11-20T03:59:09;112.32;;;48.75;;
52272;SDS011;38227;50.942;4.016;2022-11-20T04:01:37;117.10;;;48.90;;
52272;SDS011;38227;50.942;4.016;2022-11-20T04:04:07;112.88;;;49.80;;
52272;SDS011;38227;50.942;4.016;2022-11-20T04:06:38;114.18;;;48.38;;
52272;SDS011;38227;50.942;4.016;2022-11-20T04:09:08;110.18;;;48.40;;
52272;SDS011;38227;50.942;4.016;2022-11-20T04:11:44;110.47;;;48.28;;
52272;SDS011;38227;50.942;4.016;2022-11-20T04:14:14;107.00;;;47.58;;
52272;SDS011;38227;50.942;4.016;2022-11-20T04:16:42;105.32;;;47.70;;
52272;SDS011;38227;50.942;4.016;2022-11-20T04:19:14;104.07;;;46.10;;
52272;SDS011;38227;50.942;4.016;2022-11-20T04:21:43;98.97;;;46.65;;
52272;SDS011;38227;50.942;4.016;2022-11-20T04:24:14;105.53;;;46.88;;
52272;SDS011;38227;50.942;4.016;2022-11-20T04:26:41;104.72;;;46.03;;
52272;SDS011;38227;50.942;4.016;2022-11-20T04:29:11;111.50;;;47.72;;
52272;SDS011;38227;50.942;4.016;2022-11-20T04:31:48;107.75;;;47.78;;
52272;SDS011;38227;50.942;4.016;2022-11-20T04:34:19;117.10;;;48.78;;
52272;SDS011;38227;50.942;4.016;2022-11-20T04:36:49;112.50;;;47.92;;
52272;SDS011;38227;50.942;4.016;2022-11-20T04:39:19;111.93;;;48.85;;
52272;SDS011;38227;50.942;4.016;2022-11-20T04:41:50;110.97;;;47.80;;
52272;SDS011;38227;50.942;4.016;2022-11-20T04:44:38;117.55;;;48.65;;
52272;SDS011;38227;50.942;4.016;2022-11-20T04:47:16;116.47;;;49.13;;
52272;SDS011;38227;50.942;4.016;2022-11-20T04:49:57;112.47;;;48.08;;
52272;SDS011;38227;50.942;4.016;2022-11-20T04:52:26;112.20;;;48.38;;
52272;SDS011;38227;50.942;4.016;2022-11-20T04:54:57;118.65;;;48.92;;
52272;SDS011;38227;50.942;4.016;2022-11-20T04:57:26;115.35;;;48.67;;
52272;SDS011;38227;50.942;4.016;2022-11-20T05:00:03;119.20;;;48.20;;
52272;SDS011;38227;50.942;4.016;2022-11-20T05:02:35;109.70;;;46.88;;
52272;SDS011;38227;50.942;4.016;2022-11-20T05:05:12;102.90;;;46.37;;
52272;SDS011;38227;50.942;4.016;2022-11-20T05:07:41;108.10;;;47.13;;
52272;SDS011;38227;50.942;4.016;2022-11-20T05:10:13;111.72;;;45.65;;
52272;SDS011;38227;50.942;4.016;2022-11-20T05:12:42;109.72;;;46.37;;
52272;SDS011;38227;50.942;4.016;2022-11-20T05:15:19;110.22;;;45.83;;
52272;SDS011;38227;50.942;4.016;2022-11-20T05:17:51;110.75;;;45.92;;
52272;SDS011;38227;50.942;4.016;2022-11-20T05:20:25;110.12;;;47.30;;
52272;SDS011;38227;50.942;4.016;2022-11-20T05:22:58;111.07;;;46.37;;
52272;SDS011;38227;50.942;4.016;2022-11-20T05:25:30;116.90;;;46.97;;
52272;SDS011;38227;50.942;4.016;2022-11-20T05:28:06;121.87;;;49.15;;
52272;SDS011;38227;50.942;4.016;2022-11-20T05:30:45;121.03;;;48.53;;
52272;SDS011;38227;50.942;4.016;2022-11-20T05:33:18;134.98;;;49.63;;
52272;SDS011;38227;50.942;4.016;2022-11-20T05:35:57;133.98;;;50.55;;
52272;SDS011;38227;50.942;4.016;2022-11-20T05:38:34;139.18;;;51.25;;
52272;SDS011;38227;50.942;4.016;2022-11-20T05:41:08;140.85;;;50.83;;
52272;SDS011;38227;50.942;4.016;2022-11-20T05:43:48;148.13;;;51.85;;
52272;SDS011;38227;50.942;4.016;2022-11-20T05:46:27;148.80;;;50.20;;
52272;SDS011;38227;50.942;4.016;2022-11-20T05:49:01;144.45;;;50.30;;
52272;SDS011;38227;50.942;4.016;2022-11-20T05:51:32;145.05;;;50.85;;
52272;SDS011;38227;50.942;4.016;2022-11-20T05:54:19;147.27;;;50.90;;
52272;SDS011;38227;50.942;4.016;2022-11-20T05:56:50;148.87;;;51.60;;
52272;SDS011;38227;50.942;4.016;2022-11-20T05:59:23;145.52;;;50.78;;
52272;SDS011;38227;50.942;4.016;2022-11-20T06:01:56;141.88;;;50.20;;
52272;SDS011;38227;50.942;4.016;2022-11-20T06:04:30;151.43;;;49.38;;
52272;SDS011;38227;50.942;4.016;2022-11-20T06:07:02;148.25;;;51.60;;
52272;SDS011;38227;50.942;4.016;2022-11-20T06:09:35;148.90;;;51.17;;
52272;SDS011;38227;50.942;4.016;2022-11-20T06:12:07;152.85;;;52.22;;
52272;SDS011;38227;50.942;4.016;2022-11-20T06:14:42;146.27;;;51.58;;
52272;SDS011;38227;50.942;4.016;2022-11-20T06:17:13;154.60;;;51.97;;
52272;SDS011;38227;50.942;4.016;2022-11-20T06:19:53;152.18;;;50.80;;
52272;SDS011;38227;50.942;4.016;2022-11-20T06:22:24;154.00;;;51.83;;
52272;SDS011;38227;50.942;4.016;2022-11-20T06:24:55;156.90;;;52.42;;
52272;SDS011;38227;50.942;4.016;2022-11-20T06:27:29;153.20;;;51.60;;
52272;SDS011;38227;50.942;4.016;2022-11-20T06:30:02;152.30;;;51.92;;
52272;SDS011;38227;50.942;4.016;2022-11-20T06:32:36;148.85;;;52.70;;
52272;SDS011;38227;50.942;4.016;2022-11-20T06:35:13;143.83;;;51.07;;
52272;SDS011;38227;50.942;4.016;2022-11-20T06:37:53;143.32;;;50.72;;
52272;SDS011;38227;50.942;4.016;2022-11-20T06:40:34;145.82;;;50.12;;
52272;SDS011;38227;50.942;4.016;2022-11-20T06:43:05;145.10;;;50.58;;
52272;SDS011;38227;50.942;4.016;2022-11-20T06:45:39;145.93;;;51.25;;
52272;SDS011;38227;50.942;4.016;2022-11-20T06:48:09;155.60;;;52.95;;
52272;SDS011;38227;50.942;4.016;2022-11-20T06:50:41;151.95;;;52.25;;
52272;SDS011;38227;50.942;4.016;2022-11-20T06:53:10;138.62;;;50.58;;
52272;SDS011;38227;50.942;4.016;2022-11-20T06:55:47;134.98;;;50.12;;
52272;SDS011;38227;50.942;4.016;2022-11-20T06:58:16;132.95;;;49.28;;
52272;SDS011;38227;50.942;4.016;2022-11-20T07:00:44;144.37;;;50.88;;
52272;SDS011;38227;50.942;4.016;2022-11-20T07:03:13;130.00;;;48.97;;
52272;SDS011;38227;50.942;4.016;2022-11-20T07:05:43;121.25;;;47.13;;
52272;SDS011;38227;50.942;4.016;2022-11-20T07:08:21;125.22;;;48.25;;
52272;SDS011;38227;50.942;4.016;2022-11-20T07:10:51;124.75;;;47.58;;
52272;SDS011;38227;50.942;4.016;2022-11-20T07:13:33;117.72;;;47.67;;
52272;SDS011;38227;50.942;4.016;2022-11-20T07:16:02;119.03;;;46.20;;
52272;SDS011;38227;50.942;4.016;2022-11-20T07:18:33;115.82;;;46.90;;
52272;SDS011;38227;50.942;4.016;2022-11-20T07:21:05;115.43;;;46.25;;
52272;SDS011;38227;50.942;4.016;2022-11-20T07:23:36;108.45;;;45.63;;
52272;SDS011;38227;50.942;4.016;2022-11-20T07:26:05;111.85;;;45.83;;
52272;SDS011;38227;50.942;4.016;2022-11-20T07:28:37;112.40;;;45.90;;
52272;SDS011;38227;50.942;4.016;2022-11-20T07:31:08;116.53;;;47.58;;
52272;SDS011;38227;50.942;4.016;2022-11-20T07:33:46;113.07;;;45.55;;
52272;SDS011;38227;50.942;4.016;2022-11-20T07:36:20;119.65;;;46.42;;
52272;SDS011;38227;50.942;4.016;2022-11-20T07:38:58;118.90;;;46.37;;
52272;SDS011;38227;50.942;4.016;2022-11-20T07:41:28;118.78;;;45.50;;
52272;SDS011;38227;50.942;4.016;2022-11-20T07:44:00;111.85;;;42.97;;
52272;SDS011;38227;50.942;4.016;2022-11-20T07:46:28;116.65;;;45.12;;
52272;SDS011;38227;50.942;4.016;2022-11-20T07:48:58;109.28;;;43.40;;
52272;SDS011;38227;50.942;4.016;2022-11-20T07:51:28;113.57;;;42.72;;
52272;SDS011;38227;50.942;4.016;2022-11-20T07:53:58;110.47;;;44.70;;
52272;SDS011;38227;50.942;4.016;2022-11-20T07:56:29;106.20;;;43.97;;
52272;SDS011;38227;50.942;4.016;2022-11-20T07:58:59;101.62;;;41.97;;
52272;SDS011;38227;50.942;4.016;2022-11-20T08:01:30;108.75;;;43.40;;
52272;SDS011;38227;50.942;4.016;2022-11-20T08:03:59;103.65;;;42.53;;
52272;SDS011;38227;50.942;4.016;2022-11-20T08:06:36;103.62;;;41.60;;
52272;SDS011;38227;50.942;4.016;2022-11-20T08:09:06;104.57;;;42.75;;
52272;SDS011;38227;50.942;4.016;2022-11-20T08:11:36;101.28;;;39.88;;
52272;SDS011;38227;50.942;4.016;2022-11-20T08:14:23;108.87;;;40.47;;
52272;SDS011;38227;50.942;4.016;2022-11-20T08:16:54;103.62;;;40.17;;
52272;SDS011;38227;50.942;4.016;2022-11-20T08:19:24;105.63;;;40.88;;
52272;SDS011;38227;50.942;4.016;2022-11-20T08:21:54;110.07;;;41.28;;
52272;SDS011;38227;50.942;4.016;2022-11-20T08:24:24;106.25;;;40.03;;
52272;SDS011;38227;50.942;4.016;2022-11-20T08:26:56;104.97;;;39.63;;
52272;SDS011;38227;50.942;4.016;2022-11-20T08:29:27;101.38;;;39.38;;
52272;SDS011;38227;50.942;4.016;2022-11-20T08:32:04;105.85;;;39.00;;
52272;SDS011;38227;50.942;4.016;2022-11-20T08:34:43;96.78;;;38.05;;
52272;SDS011;38227;50.942;4.016;2022-11-20T08:37:15;99.55;;;39.05;;
52272;SDS011;38227;50.942;4.016;2022-11-20T08:39:46;103.93;;;38.33;;
52272;SDS011;38227;50.942;4.016;2022-11-20T08:42:15;115.90;;;42.28;;
52272;SDS011;38227;50.942;4.016;2022-11-20T08:44:47;105.85;;;37.67;;
52272;SDS011;38227;50.942;4.016;2022-11-20T08:47:16;110.55;;;39.42;;
52272;SDS011;38227;50.942;4.016;2022-11-20T08:49:47;115.65;;;39.95;;
52272;SDS011;38227;50.942;4.016;2022-11-20T08:52:17;120.20;;;41.80;;
52272;SDS011;38227;50.942;4.016;2022-11-20T08:54:48;124.35;;;42.13;;
52272;SDS011;38227;50.942;4.016;2022-11-20T08:57:16;130.27;;;42.33;;
52272;SDS011;38227;50.942;4.016;2022-11-20T08:59:49;128.18;;;42.97;;
52272;SDS011;38227;50.942;4.016;2022-11-20T09:02:21;126.80;;;43.08;;
52272;SDS011;38227;50.942;4.016;2022-11-20T09:04:52;120.05;;;39.92;;
52272;SDS011;38227;50.942;4.016;2022-11-20T09:07:21;122.32;;;42.10;;
52272;SDS011;38227;50.942;4.016;2022-11-20T09:09:52;132.90;;;41.20;;
52272;SDS011;38227;50.942;4.016;2022-11-20T09:12:22;122.87;;;42.03;;
52272;SDS011;38227;50.942;4.016;2022-11-20T09:14:53;121.45;;;42.47;;
52272;SDS011;38227;50.942;4.016;2022-11-20T09:17:22;118.18;;;40.45;;
52272;SDS011;38227;50.942;4.016;2022-11-20T09:19:54;109.05;;;39.88;;
52272;SDS011;38227;50.942;4.016;2022-11-20T09:22:23;112.00;;;41.17;;
52272;SDS011;38227;50.942;4.016;2022-11-20T09:24:54;93.65;;;36.72;;
52272;SDS011;38227;50.942;4.016;2022-11-20T09:27:22;106.50;;;38.92;;
52272;SDS011;38227;50.942;4.016;2022-11-20T09:29:55;96.47;;;36.97;;
52272;SDS011;38227;50.942;4.016;2022-11-20T09:32:27;94.03;;;36.28;;
52272;SDS011;38227;50.942;4.016;2022-11-20T09:35:01;90.30;;;35.03;;
52272;SDS011;38227;50.942;4.016;2022-11-20T09:37:30;85.18;;;35.42;;
52272;SDS011;38227;50.942;4.016;2022-11-20T09:39:59;84.32;;;33.92;;
52272;SDS011;38227;50.942;4.016;2022-11-20T09:42:37;70.43;;;32.60;;
52272;SDS011;38227;50.942;4.016;2022-11-20T09:45:35;78.40;;;33.47;;
52272;SDS011;38227;50.942;4.016;2022-11-20T09:51:23;74.50;;;29.90;;
52272;SDS011;38227;50.942;4.016;2022-11-20T09:54:19;64.50;;;28.65;;
52272;SDS011;38227;50.942;4.016;2022-11-20T09:56:59;64.18;;;28.02;;
52272;SDS011;38227;50.942;4.016;2022-11-20T09:59:52;62.13;;;27.40;;
52272;SDS011;38227;50.942;4.016;2022-11-20T10:05:33;55.10;;;25.85;;
52272;SDS011;38227;50.942;4.016;2022-11-20T10:11:21;53.20;;;24.15;;
52272;SDS011;38227;50.942;4.016;2022-11-20T10:21:13;41.97;;;20.37;;
52272;SDS011;38227;50.942;4.016;2022-11-20T10:24:22;44.28;;;19.75;;
52272;SDS011;38227;50.942;4.016;2022-11-20T10:30:28;29.50;;;14.98;;
52272;SDS011;38227;50.942;4.016;2022-11-20T10:32:59;29.65;;;14.30;;
52272;SDS011;38227;50.942;4.016;2022-11-20T10:35:49;29.45;;;14.10;;
52272;SDS011;38227;50.942;4.016;2022-11-20T10:38:49;28.73;;;13.02;;
52272;SDS011;38227;50.942;4.016;2022-11-20T10:41:24;23.87;;;11.52;;
52272;SDS011;38227;50.942;4.016;2022-11-20T10:44:00;21.15;;;10.90;;
52272;SDS011;38227;50.942;4.016;2022-11-20T10:46:40;19.90;;;10.02;;
52272;SDS011;38227;50.942;4.016;2022-11-20T10:49:28;22.55;;;9.77;;
52272;SDS011;38227;50.942;4.016;2022-11-20T10:52:04;19.12;;;9.40;;
52272;SDS011;38227;50.942;4.016;2022-11-20T10:54:47;17.62;;;8.30;;
52272;SDS011;38227;50.942;4.016;2022-11-20T10:57:35;20.17;;;8.43;;
52272;SDS011;38227;50.942;4.016;2022-11-20T11:00:34;16.95;;;6.62;;
52272;SDS011;38227;50.942;4.016;2022-11-20T11:03:03;13.40;;;7.12;;
52272;SDS011;38227;50.942;4.016;2022-11-20T11:05:57;17.70;;;7.40;;
52272;SDS011;38227;50.942;4.016;2022-11-20T11:08:51;16.73;;;6.22;;
52272;SDS011;38227;50.942;4.016;2022-11-20T11:11:27;16.25;;;6.40;;
52272;SDS011;38227;50.942;4.016;2022-11-20T11:16:53;9.40;;;5.10;;
52272;SDS011;38227;50.942;4.016;2022-11-20T11:19:40;11.63;;;5.37;;
52272;SDS011;38227;50.942;4.016;2022-11-20T11:22:54;14.05;;;5.30;;
52272;SDS011;38227;50.942;4.016;2022-11-20T11:25:30;11.85;;;5.32;;
52272;SDS011;38227;50.942;4.016;2022-11-20T11:30:47;12.10;;;4.82;;
52272;SDS011;38227;50.942;4.016;2022-11-20T11:33:24;12.20;;;4.95;;
52272;SDS011;38227;50.942;4.016;2022-11-20T11:35:58;11.02;;;5.12;;
52272;SDS011;38227;50.942;4.016;2022-11-20T11:38:36;12.43;;;5.12;;
52272;SDS011;38227;50.942;4.016;2022-11-20T11:41:16;15.30;;;4.78;;
52272;SDS011;38227;50.942;4.016;2022-11-20T11:43:56;12.13;;;4.60;;
52272;SDS011;38227;50.942;4.016;2022-11-20T11:46:54;11.43;;;4.45;;
52272;SDS011;38227;50.942;4.016;2022-11-20T11:49:28;12.77;;;4.18;;
52272;SDS011;38227;50.942;4.016;2022-11-20T11:54:54;12.25;;;4.32;;
52272;SDS011;38227;50.942;4.016;2022-11-20T11:57:28;12.35;;;4.15;;
52272;SDS011;38227;50.942;4.016;2022-11-20T12:00:20;10.63;;;4.32;;
52272;SDS011;38227;50.942;4.016;2022-11-20T12:02:53;14.82;;;4.50;;
52272;SDS011;38227;50.942;4.016;2022-11-20T12:05:48;22.10;;;4.80;;
52272;SDS011;38227;50.942;4.016;2022-11-20T12:08:36;14.38;;;4.12;;
52272;SDS011;38227;50.942;4.016;2022-11-20T12:11:42;9.45;;;4.12;;
52272;SDS011;38227;50.942;4.016;2022-11-20T12:14:27;14.13;;;4.97;;
52272;SDS011;38227;50.942;4.016;2022-11-20T12:17:10;16.08;;;5.05;;
52272;SDS011;38227;50.942;4.016;2022-11-20T12:19:43;17.15;;;5.53;;
52272;SDS011;38227;50.942;4.016;2022-11-20T12:22:27;12.75;;;5.47;;
52272;SDS011;38227;50.942;4.016;2022-11-20T12:25:23;11.88;;;5.37;;
52272;SDS011;38227;50.942;4.016;2022-11-20T12:37:27;16.08;;;5.57;;
52272;SDS011;38227;50.942;4.016;2022-11-20T12:40:35;14.63;;;5.10;;
52272;SDS011;38227;50.942;4.016;2022-11-20T12:43:32;18.30;;;5.72;;
52272;SDS011;38227;50.942;4.016;2022-11-20T12:46:29;14.65;;;5.93;;
52272;SDS011;38227;50.942;4.016;2022-11-20T12:58:34;14.35;;;6.75;;
52272;SDS011;38227;50.942;4.016;2022-11-20T13:08:01;13.25;;;6.07;;
52272;SDS011;38227;50.942;4.016;2022-11-20T13:20:05;13.45;;;5.35;;
52272;SDS011;38227;50.942;4.016;2022-11-20T13:22:46;8.38;;;4.87;;
52272;SDS011;38227;50.942;4.016;2022-11-20T13:30:59;6.62;;;4.40;;
52272;SDS011;38227;50.942;4.016;2022-11-20T13:33:30;9.25;;;3.90;;
52272;SDS011;38227;50.942;4.016;2022-11-20T13:36:04;8.85;;;4.37;;
52272;SDS011;38227;50.942;4.016;2022-11-20T13:38:44;5.20;;;3.47;;
52272;SDS011;38227;50.942;4.016;2022-11-20T13:44:38;9.65;;;3.83;;
52272;SDS011;38227;50.942;4.016;2022-11-20T13:47:24;8.95;;;3.40;;
52272;SDS011;38227;50.942;4.016;2022-11-20T13:49:57;5.60;;;3.25;;
52272;SDS011;38227;50.942;4.016;2022-11-20T13:55:50;4.62;;;3.15;;
52272;SDS011;38227;50.942;4.016;2022-11-20T14:01:54;4.47;;;3.08;;
52272;SDS011;38227;50.942;4.016;2022-11-20T14:04:29;4.15;;;3.03;;
52272;SDS011;38227;50.942;4.016;2022-11-20T14:07:02;4.57;;;3.53;;
52272;SDS011;38227;50.942;4.016;2022-11-20T14:09:39;7.87;;;4.20;;
52272;SDS011;38227;50.942;4.016;2022-11-20T14:12:26;5.05;;;3.72;;
52272;SDS011;38227;50.942;4.016;2022-11-20T14:14:58;6.32;;;4.05;;
52272;SDS011;38227;50.942;4.016;2022-11-20T14:17:30;8.93;;;4.07;;
52272;SDS011;38227;50.942;4.016;2022-11-20T14:20:06;3.95;;;3.25;;
52272;SDS011;38227;50.942;4.016;2022-11-20T14:22:48;5.72;;;3.62;;
52272;SDS011;38227;50.942;4.016;2022-11-20T14:28:16;8.50;;;5.03;;
52272;SDS011;38227;50.942;4.016;2022-11-20T14:30:57;6.78;;;4.40;;
52272;SDS011;38227;50.942;4.016;2022-11-20T14:33:26;7.45;;;4.97;;
52272;SDS011;38227;50.942;4.016;2022-11-20T14:35:57;8.75;;;5.07;;
52272;SDS011;38227;50.942;4.016;2022-11-20T14:38:27;7.60;;;4.93;;
52272;SDS011;38227;50.942;4.016;2022-11-20T14:43:54;8.35;;;5.05;;
52272;SDS011;38227;50.942;4.016;2022-11-20T14:46:26;8.20;;;4.85;;
52272;SDS011;38227;50.942;4.016;2022-11-20T14:48:56;9.82;;;5.00;;
52272;SDS011;38227;50.942;4.016;2022-11-20T14:51:35;10.27;;;4.57;;
52272;SDS011;38227;50.942;4.016;2022-11-20T14:54:12;10.82;;;4.90;;
52272;SDS011;38227;50.942;4.016;2022-11-20T14:56:42;10.73;;;4.85;;
52272;SDS011;38227;50.942;4.016;2022-11-20T14:59:27;10.98;;;4.90;;
52272;SDS011;38227;50.942;4.016;2022-11-20T15:02:06;8.20;;;4.72;;
52272;SDS011;38227;50.942;4.016;2022-11-20T15:04:48;10.52;;;4.90;;
52272;SDS011;38227;50.942;4.016;2022-11-20T15:07:23;13.80;;;5.40;;
52272;SDS011;38227;50.942;4.016;2022-11-20T15:10:02;11.95;;;4.78;;
52272;SDS011;38227;50.942;4.016;2022-11-20T15:12:36;10.85;;;5.20;;
52272;SDS011;38227;50.942;4.016;2022-11-20T15:15:10;8.98;;;5.07;;
52272;SDS011;38227;50.942;4.016;2022-11-20T15:17:41;12.27;;;5.78;;
52272;SDS011;38227;50.942;4.016;2022-11-20T15:20:14;18.87;;;5.35;;
52272;SDS011;38227;50.942;4.016;2022-11-20T15:22:43;10.35;;;4.70;;
52272;SDS011;38227;50.942;4.016;2022-11-20T15:25:16;13.95;;;5.05;;
52272;SDS011;38227;50.942;4.016;2022-11-20T15:27:54;12.02;;;4.95;;
52272;SDS011;38227;50.942;4.016;2022-11-20T15:30:27;15.60;;;4.82;;
52272;SDS011;38227;50.942;4.016;2022-11-20T15:32:57;18.65;;;4.62;;
52272;SDS011;38227;50.942;4.016;2022-11-20T15:35:30;20.95;;;4.80;;
52272;SDS011;38227;50.942;4.016;2022-11-20T15:38:01;20.62;;;4.70;;
52272;SDS011;38227;50.942;4.016;2022-11-20T15:40:38;20.62;;;4.65;;
52272;SDS011;38227;50.942;4.016;2022-11-20T15:43:08;22.00;;;4.45;;
52272;SDS011;38227;50.942;4.016;2022-11-20T15:48:36;20.75;;;4.57;;
52272;SDS011;38227;50.942;4.016;2022-11-20T15:54:16;21.40;;;4.57;;
52272;SDS011;38227;50.942;4.016;2022-11-20T15:56:47;25.15;;;4.00;;
52272;SDS011;38227;50.942;4.016;2022-11-20T15:59:20;23.23;;;4.75;;
52272;SDS011;38227;50.942;4.016;2022-11-20T16:01:57;23.27;;;4.62;;
52272;SDS011;38227;50.942;4.016;2022-11-20T16:04:28;28.35;;;4.40;;
52272;SDS011;38227;50.942;4.016;2022-11-20T16:07:01;21.12;;;3.65;;
52272;SDS011;38227;50.942;4.016;2022-11-20T16:09:40;17.62;;;3.42;;
52272;SDS011;38227;50.942;4.016;2022-11-20T16:12:18;23.90;;;4.22;;
52272;SDS011;38227;50.942;4.016;2022-11-20T16:15:04;27.40;;;4.37;;
52272;SDS011;38227;50.942;4.016;2022-11-20T16:17:51;22.67;;;4.65;;
52272;SDS011;38227;50.942;4.016;2022-11-20T16:20:21;25.37;;;4.68;;
52272;SDS011;38227;50.942;4.016;2022-11-20T16:22:53;34.53;;;5.15;;
52272;SDS011;38227;50.942;4.016;2022-11-20T16:25:32;29.33;;;5.43;;
52272;SDS011;38227;50.942;4.016;2022-11-20T16:28:13;26.37;;;5.30;;
52272;SDS011;38227;50.942;4.016;2022-11-20T16:30:44;30.27;;;5.32;;
52272;SDS011;38227;50.942;4.016;2022-11-20T16:33:21;26.77;;;4.82;;
52272;SDS011;38227;50.942;4.016;2022-11-20T16:35:54;30.27;;;4.80;;
52272;SDS011;38227;50.942;4.016;2022-11-20T16:38:28;32.38;;;4.47;;
52272;SDS011;38227;50.942;4.016;2022-11-20T16:41:06;25.37;;;3.75;;
52272;SDS011;38227;50.942;4.016;2022-11-20T16:43:45;21.15;;;3.22;;
52272;SDS011;38227;50.942;4.016;2022-11-20T16:46:21;29.37;;;4.32;;